sensor_id;sensor_type;location;lat;lon;timestamp;temperature;humidity
8953;DHT22;4511;50.890;8.054;2023-04-06T00:01:26;4.60;68.40
8953;DHT22;4511;50.890;8.054;2023-04-06T00:03:53;4.50;69.30
8953;DHT22;4511;50.890;8.054;2023-04-06T00:06:20;4.40;70.60
8953;DHT22;4511;50.890;8.054;2023-04-06T00:08:47;4.40;71.80
8953;DHT22;4511;50.890;8.054;2023-04-06T00:11:13;4.20;71.90
8953;DHT22;4511;50.890;8.054;2023-04-06T00:13:43;4.10;73.20
8953;DHT22;4511;50.890;8.054;2023-04-06T00:16:10;4.10;72.80
8953;DHT22;4511;50.890;8.054;2023-04-06T00:18:37;4.20;71.90
8953;DHT22;4511;50.890;8.054;2023-04-06T00:21:04;4.10;71.50
8953;DHT22;4511;50.890;8.054;2023-04-06T00:23:31;4.20;72.30
8953;DHT22;4511;50.890;8.054;2023-04-06T00:25:57;4.10;73.00
8953;DHT22;4511;50.890;8.054;2023-04-06T00:28:24;4.10;74.10
8953;DHT22;4511;50.890;8.054;2023-04-06T00:30:53;4.10;74.00
8953;DHT22;4511;50.890;8.054;2023-04-06T00:33:20;4.10;74.10
8953;DHT22;4511;50.890;8.054;2023-04-06T00:35:47;4.10;74.60
8953;DHT22;4511;50.890;8.054;2023-04-06T00:38:15;4.00;75.00
8953;DHT22;4511;50.890;8.054;2023-04-06T00:40:42;3.90;75.10
8953;DHT22;4511;50.890;8.054;2023-04-06T00:43:10;4.00;74.80
8953;DHT22;4511;50.890;8.054;2023-04-06T00:45:38;4.00;74.10
8953;DHT22;4511;50.890;8.054;2023-04-06T00:48:07;4.00;73.40
8953;DHT22;4511;50.890;8.054;2023-04-06T00:50:34;4.00;75.00
8953;DHT22;4511;50.890;8.054;2023-04-06T00:53:01;3.90;75.00
8953;DHT22;4511;50.890;8.054;2023-04-06T00:55:28;3.80;76.40
8953;DHT22;4511;50.890;8.054;2023-04-06T00:57:57;3.70;77.80
8953;DHT22;4511;50.890;8.054;2023-04-06T01:00:25;3.70;78.80
8953;DHT22;4511;50.890;8.054;2023-04-06T01:02:52;3.60;78.40
8953;DHT22;4511;50.890;8.054;2023-04-06T01:05:21;3.60;78.40
8953;DHT22;4511;50.890;8.054;2023-04-06T01:07:47;3.60;77.90
8953;DHT22;4511;50.890;8.054;2023-04-06T01:10:23;3.50;78.40
8953;DHT22;4511;50.890;8.054;2023-04-06T01:12:49;3.40;79.30
8953;DHT22;4511;50.890;8.054;2023-04-06T01:15:16;3.40;80.30
8953;DHT22;4511;50.890;8.054;2023-04-06T01:17:43;3.40;79.40
8953;DHT22;4511;50.890;8.054;2023-04-06T01:20:10;3.40;78.90
8953;DHT22;4511;50.890;8.054;2023-04-06T01:22:39;3.30;79.40
8953;DHT22;4511;50.890;8.054;2023-04-06T01:25:08;3.30;79.30
8953;DHT22;4511;50.890;8.054;2023-04-06T01:27:35;3.40;79.40
8953;DHT22;4511;50.890;8.054;2023-04-06T01:30:02;3.40;79.60
8953;DHT22;4511;50.890;8.054;2023-04-06T01:32:29;3.40;80.10
8953;DHT22;4511;50.890;8.054;2023-04-06T01:34:56;3.40;79.70
8953;DHT22;4511;50.890;8.054;2023-04-06T01:37:23;3.40;80.50
8953;DHT22;4511;50.890;8.054;2023-04-06T01:39:51;3.30;80.30
8953;DHT22;4511;50.890;8.054;2023-04-06T01:42:18;3.30;81.40
8953;DHT22;4511;50.890;8.054;2023-04-06T01:44:45;3.40;81.10
8953;DHT22;4511;50.890;8.054;2023-04-06T01:47:12;3.40;81.00
8953;DHT22;4511;50.890;8.054;2023-04-06T01:49:38;3.30;80.80
8953;DHT22;4511;50.890;8.054;2023-04-06T01:52:05;3.20;81.50
8953;DHT22;4511;50.890;8.054;2023-04-06T01:54:32;3.10;82.90
8953;DHT22;4511;50.890;8.054;2023-04-06T01:57:00;3.10;84.40
8953;DHT22;4511;50.890;8.054;2023-04-06T01:59:27;3.10;84.60
8953;DHT22;4511;50.890;8.054;2023-04-06T02:01:53;3.00;84.90
8953;DHT22;4511;50.890;8.054;2023-04-06T02:04:20;3.10;84.40
8953;DHT22;4511;50.890;8.054;2023-04-06T02:06:47;3.00;84.90
8953;DHT22;4511;50.890;8.054;2023-04-06T02:09:14;3.00;84.60
8953;DHT22;4511;50.890;8.054;2023-04-06T02:11:41;2.90;83.90
8953;DHT22;4511;50.890;8.054;2023-04-06T02:14:09;3.00;84.20
8953;DHT22;4511;50.890;8.054;2023-04-06T02:16:35;3.10;84.70
8953;DHT22;4511;50.890;8.054;2023-04-06T02:19:02;3.10;84.10
8953;DHT22;4511;50.890;8.054;2023-04-06T02:21:29;3.00;84.90
8953;DHT22;4511;50.890;8.054;2023-04-06T02:23:56;2.90;86.60
8953;DHT22;4511;50.890;8.054;2023-04-06T02:26:22;2.80;86.90
8953;DHT22;4511;50.890;8.054;2023-04-06T02:28:49;2.90;87.00
8953;DHT22;4511;50.890;8.054;2023-04-06T02:31:17;2.90;87.00
8953;DHT22;4511;50.890;8.054;2023-04-06T02:33:44;2.90;86.30
8953;DHT22;4511;50.890;8.054;2023-04-06T02:36:10;2.90;85.30
8953;DHT22;4511;50.890;8.054;2023-04-06T02:38:37;2.90;85.50
8953;DHT22;4511;50.890;8.054;2023-04-06T02:41:04;2.90;85.60
8953;DHT22;4511;50.890;8.054;2023-04-06T02:43:31;2.80;85.50
8953;DHT22;4511;50.890;8.054;2023-04-06T02:45:57;2.80;86.40
8953;DHT22;4511;50.890;8.054;2023-04-06T02:48:25;2.80;85.50
8953;DHT22;4511;50.890;8.054;2023-04-06T02:50:52;2.90;85.60
8953;DHT22;4511;50.890;8.054;2023-04-06T02:53:19;2.80;86.70
8953;DHT22;4511;50.890;8.054;2023-04-06T02:55:45;2.70;87.90
8953;DHT22;4511;50.890;8.054;2023-04-06T02:58:12;2.70;89.00
8953;DHT22;4511;50.890;8.054;2023-04-06T03:00:39;2.60;89.30
8953;DHT22;4511;50.890;8.054;2023-04-06T03:03:05;2.60;89.80
8953;DHT22;4511;50.890;8.054;2023-04-06T03:05:34;2.50;89.10
8953;DHT22;4511;50.890;8.054;2023-04-06T03:08:01;2.50;88.80
8953;DHT22;4511;50.890;8.054;2023-04-06T03:10:27;2.50;89.20
8953;DHT22;4511;50.890;8.054;2023-04-06T03:12:54;2.60;88.60
8953;DHT22;4511;50.890;8.054;2023-04-06T03:15:21;2.60;88.50
8953;DHT22;4511;50.890;8.054;2023-04-06T03:17:47;2.60;88.20
8953;DHT22;4511;50.890;8.054;2023-04-06T03:20:15;2.50;88.40
8953;DHT22;4511;50.890;8.054;2023-04-06T03:22:43;2.40;88.80
8953;DHT22;4511;50.890;8.054;2023-04-06T03:25:10;1.80;91.50
8953;DHT22;4511;50.890;8.054;2023-04-06T03:27:37;1.80;93.20
8953;DHT22;4511;50.890;8.054;2023-04-06T03:30:05;1.90;93.60
8953;DHT22;4511;50.890;8.054;2023-04-06T03:32:32;2.10;94.00
8953;DHT22;4511;50.890;8.054;2023-04-06T03:34:59;2.10;93.70
8953;DHT22;4511;50.890;8.054;2023-04-06T03:37:26;2.20;94.30
8953;DHT22;4511;50.890;8.054;2023-04-06T03:39:54;2.20;94.70
8953;DHT22;4511;50.890;8.054;2023-04-06T03:42:21;2.30;94.10
8953;DHT22;4511;50.890;8.054;2023-04-06T03:44:47;2.40;93.70
8953;DHT22;4511;50.890;8.054;2023-04-06T03:47:14;2.40;93.30
8953;DHT22;4511;50.890;8.054;2023-04-06T03:49:41;2.40;93.00
8953;DHT22;4511;50.890;8.054;2023-04-06T03:52:08;2.40;93.10
8953;DHT22;4511;50.890;8.054;2023-04-06T03:54:34;2.40;93.60
8953;DHT22;4511;50.890;8.054;2023-04-06T03:57:04;2.40;94.00
8953;DHT22;4511;50.890;8.054;2023-04-06T03:59:30;2.40;94.00
8953;DHT22;4511;50.890;8.054;2023-04-06T04:01:57;2.30;94.20
8953;DHT22;4511;50.890;8.054;2023-04-06T04:04:24;2.30;94.20
8953;DHT22;4511;50.890;8.054;2023-04-06T04:06:51;2.20;94.90
8953;DHT22;4511;50.890;8.054;2023-04-06T04:09:17;2.20;94.40
8953;DHT22;4511;50.890;8.054;2023-04-06T04:11:44;2.20;94.40
8953;DHT22;4511;50.890;8.054;2023-04-06T04:14:12;2.20;94.50
8953;DHT22;4511;50.890;8.054;2023-04-06T04:16:39;2.20;95.20
8953;DHT22;4511;50.890;8.054;2023-04-06T04:19:07;2.10;95.20
8953;DHT22;4511;50.890;8.054;2023-04-06T04:21:41;2.10;95.30
8953;DHT22;4511;50.890;8.054;2023-04-06T04:24:08;2.20;95.00
8953;DHT22;4511;50.890;8.054;2023-04-06T04:26:35;2.20;95.50
8953;DHT22;4511;50.890;8.054;2023-04-06T04:29:02;2.20;95.10
8953;DHT22;4511;50.890;8.054;2023-04-06T04:31:30;2.10;95.70
8953;DHT22;4511;50.890;8.054;2023-04-06T04:33:57;2.10;96.40
8953;DHT22;4511;50.890;8.054;2023-04-06T04:36:24;2.20;96.20
8953;DHT22;4511;50.890;8.054;2023-04-06T04:38:51;2.10;96.40
8953;DHT22;4511;50.890;8.054;2023-04-06T04:41:18;2.10;95.70
8953;DHT22;4511;50.890;8.054;2023-04-06T04:43:45;2.10;95.70
8953;DHT22;4511;50.890;8.054;2023-04-06T04:46:12;2.10;96.10
8953;DHT22;4511;50.890;8.054;2023-04-06T04:48:40;2.00;96.10
8953;DHT22;4511;50.890;8.054;2023-04-06T04:51:07;2.10;96.50
8953;DHT22;4511;50.890;8.054;2023-04-06T04:53:33;2.10;96.30
8953;DHT22;4511;50.890;8.054;2023-04-06T04:56:00;2.10;96.30
8953;DHT22;4511;50.890;8.054;2023-04-06T04:58:27;2.10;96.10
8953;DHT22;4511;50.890;8.054;2023-04-06T05:00:54;2.10;96.00
8953;DHT22;4511;50.890;8.054;2023-04-06T05:03:22;2.20;95.80
8953;DHT22;4511;50.890;8.054;2023-04-06T05:05:51;2.10;96.10
8953;DHT22;4511;50.890;8.054;2023-04-06T05:08:18;2.20;96.00
8953;DHT22;4511;50.890;8.054;2023-04-06T05:10:45;2.20;95.80
8953;DHT22;4511;50.890;8.054;2023-04-06T05:13:13;2.40;99.90
8953;DHT22;4511;50.890;8.054;2023-04-06T05:15:40;2.80;97.70
8953;DHT22;4511;50.890;8.054;2023-04-06T05:18:08;2.60;97.10
8953;DHT22;4511;50.890;8.054;2023-04-06T05:20:35;2.50;97.60
8953;DHT22;4511;50.890;8.054;2023-04-06T05:23:03;2.50;96.80
8953;DHT22;4511;50.890;8.054;2023-04-06T05:25:30;2.40;96.50
8953;DHT22;4511;50.890;8.054;2023-04-06T05:27:58;2.40;97.10
8953;DHT22;4511;50.890;8.054;2023-04-06T05:30:25;2.30;97.00
8953;DHT22;4511;50.890;8.054;2023-04-06T05:32:52;2.30;96.80
8953;DHT22;4511;50.890;8.054;2023-04-06T05:35:18;2.50;95.50
8953;DHT22;4511;50.890;8.054;2023-04-06T05:37:45;2.50;95.50
8953;DHT22;4511;50.890;8.054;2023-04-06T05:40:14;2.60;95.40
8953;DHT22;4511;50.890;8.054;2023-04-06T05:42:42;2.70;95.10
8953;DHT22;4511;50.890;8.054;2023-04-06T05:45:10;2.80;94.10
8953;DHT22;4511;50.890;8.054;2023-04-06T05:47:42;2.90;92.80
8953;DHT22;4511;50.890;8.054;2023-04-06T05:50:09;3.10;93.00
8953;DHT22;4511;50.890;8.054;2023-04-06T05:52:36;3.10;91.80
8953;DHT22;4511;50.890;8.054;2023-04-06T05:55:03;3.20;91.60
8953;DHT22;4511;50.890;8.054;2023-04-06T05:57:32;3.30;91.40
8953;DHT22;4511;50.890;8.054;2023-04-06T05:59:58;3.50;90.20
8953;DHT22;4511;50.890;8.054;2023-04-06T06:02:25;3.60;89.10
8953;DHT22;4511;50.890;8.054;2023-04-06T06:04:52;3.60;89.00
8953;DHT22;4511;50.890;8.054;2023-04-06T06:07:19;3.70;89.10
8953;DHT22;4511;50.890;8.054;2023-04-06T06:09:47;3.80;88.40
8953;DHT22;4511;50.890;8.054;2023-04-06T06:12:14;3.90;88.20
8953;DHT22;4511;50.890;8.054;2023-04-06T06:14:42;4.00;86.70
8953;DHT22;4511;50.890;8.054;2023-04-06T06:17:08;3.90;88.20
8953;DHT22;4511;50.890;8.054;2023-04-06T06:19:35;4.00;88.20
8953;DHT22;4511;50.890;8.054;2023-04-06T06:22:02;4.10;87.00
8953;DHT22;4511;50.890;8.054;2023-04-06T06:24:30;4.10;87.90
8953;DHT22;4511;50.890;8.054;2023-04-06T06:26:57;4.20;85.70
8953;DHT22;4511;50.890;8.054;2023-04-06T06:29:25;4.30;85.70
8953;DHT22;4511;50.890;8.054;2023-04-06T06:31:53;4.40;83.90
8953;DHT22;4511;50.890;8.054;2023-04-06T06:34:19;4.50;84.70
8953;DHT22;4511;50.890;8.054;2023-04-06T06:36:46;4.50;83.10
8953;DHT22;4511;50.890;8.054;2023-04-06T06:39:13;4.60;82.20
8953;DHT22;4511;50.890;8.054;2023-04-06T06:41:40;4.80;81.70
8953;DHT22;4511;50.890;8.054;2023-04-06T06:44:06;4.80;80.80
8953;DHT22;4511;50.890;8.054;2023-04-06T06:46:33;4.90;81.40
8953;DHT22;4511;50.890;8.054;2023-04-06T06:49:01;5.00;81.20
8953;DHT22;4511;50.890;8.054;2023-04-06T06:51:28;5.00;80.20
8953;DHT22;4511;50.890;8.054;2023-04-06T06:53:55;5.10;80.20
8953;DHT22;4511;50.890;8.054;2023-04-06T06:56:22;5.20;80.80
8953;DHT22;4511;50.890;8.054;2023-04-06T06:58:48;5.30;80.10
8953;DHT22;4511;50.890;8.054;2023-04-06T07:01:15;5.30;80.00
8953;DHT22;4511;50.890;8.054;2023-04-06T07:03:42;5.30;79.80
8953;DHT22;4511;50.890;8.054;2023-04-06T07:06:10;5.40;79.10
8953;DHT22;4511;50.890;8.054;2023-04-06T07:08:37;5.50;79.30
8953;DHT22;4511;50.890;8.054;2023-04-06T07:11:04;5.60;80.00
8953;DHT22;4511;50.890;8.054;2023-04-06T07:13:30;5.70;79.70
8953;DHT22;4511;50.890;8.054;2023-04-06T07:15:57;5.70;79.30
8953;DHT22;4511;50.890;8.054;2023-04-06T07:18:24;5.80;79.30
8953;DHT22;4511;50.890;8.054;2023-04-06T07:20:51;5.80;80.50
8953;DHT22;4511;50.890;8.054;2023-04-06T07:23:19;5.80;79.30
8953;DHT22;4511;50.890;8.054;2023-04-06T07:25:46;5.90;78.90
8953;DHT22;4511;50.890;8.054;2023-04-06T07:28:13;5.90;78.50
8953;DHT22;4511;50.890;8.054;2023-04-06T07:30:40;6.00;79.20
8953;DHT22;4511;50.890;8.054;2023-04-06T07:33:06;6.10;79.40
8953;DHT22;4511;50.890;8.054;2023-04-06T07:35:33;6.10;79.50
8953;DHT22;4511;50.890;8.054;2023-04-06T07:38:02;6.30;79.10
8953;DHT22;4511;50.890;8.054;2023-04-06T07:40:30;6.30;78.70
8953;DHT22;4511;50.890;8.054;2023-04-06T07:42:58;6.40;78.20
8953;DHT22;4511;50.890;8.054;2023-04-06T07:45:25;6.40;78.60
8953;DHT22;4511;50.890;8.054;2023-04-06T07:47:51;6.50;78.80
8953;DHT22;4511;50.890;8.054;2023-04-06T07:50:18;6.60;77.90
8953;DHT22;4511;50.890;8.054;2023-04-06T07:52:46;6.70;78.70
8953;DHT22;4511;50.890;8.054;2023-04-06T07:55:12;6.80;78.80
8953;DHT22;4511;50.890;8.054;2023-04-06T07:57:40;6.90;78.20
8953;DHT22;4511;50.890;8.054;2023-04-06T08:00:08;6.90;78.50
8953;DHT22;4511;50.890;8.054;2023-04-06T08:02:35;7.00;77.70
8953;DHT22;4511;50.890;8.054;2023-04-06T08:05:02;7.10;79.70
8953;DHT22;4511;50.890;8.054;2023-04-06T08:07:29;7.10;78.10
8953;DHT22;4511;50.890;8.054;2023-04-06T08:09:56;7.20;78.00
8953;DHT22;4511;50.890;8.054;2023-04-06T08:12:23;7.20;78.00
8953;DHT22;4511;50.890;8.054;2023-04-06T08:14:51;7.30;78.00
8953;DHT22;4511;50.890;8.054;2023-04-06T08:17:17;7.40;77.40
8953;DHT22;4511;50.890;8.054;2023-04-06T08:19:44;7.50;78.60
8953;DHT22;4511;50.890;8.054;2023-04-06T08:22:11;7.60;77.60
8953;DHT22;4511;50.890;8.054;2023-04-06T08:24:38;7.70;77.60
8953;DHT22;4511;50.890;8.054;2023-04-06T08:27:04;7.80;77.80
8953;DHT22;4511;50.890;8.054;2023-04-06T08:29:31;7.90;76.50
8953;DHT22;4511;50.890;8.054;2023-04-06T08:31:59;8.00;77.20
8953;DHT22;4511;50.890;8.054;2023-04-06T08:34:31;8.00;76.70
8953;DHT22;4511;50.890;8.054;2023-04-06T08:36:57;8.10;76.90
8953;DHT22;4511;50.890;8.054;2023-04-06T08:39:24;8.20;77.70
8953;DHT22;4511;50.890;8.054;2023-04-06T08:41:53;8.30;76.80
8953;DHT22;4511;50.890;8.054;2023-04-06T08:44:22;8.50;75.80
8953;DHT22;4511;50.890;8.054;2023-04-06T08:46:49;8.50;75.10
8953;DHT22;4511;50.890;8.054;2023-04-06T08:49:19;8.60;76.30
8953;DHT22;4511;50.890;8.054;2023-04-06T08:51:48;8.80;76.00
8953;DHT22;4511;50.890;8.054;2023-04-06T08:54:15;8.90;75.50
8953;DHT22;4511;50.890;8.054;2023-04-06T08:56:42;8.90;73.70
8953;DHT22;4511;50.890;8.054;2023-04-06T08:59:09;9.00;72.60
8953;DHT22;4511;50.890;8.054;2023-04-06T09:01:39;9.10;74.60
8953;DHT22;4511;50.890;8.054;2023-04-06T09:04:08;9.20;74.50
8953;DHT22;4511;50.890;8.054;2023-04-06T09:06:37;9.30;71.40
8953;DHT22;4511;50.890;8.054;2023-04-06T09:09:05;9.40;71.20
8953;DHT22;4511;50.890;8.054;2023-04-06T09:11:43;9.50;68.80
8953;DHT22;4511;50.890;8.054;2023-04-06T09:14:10;9.50;69.40
8953;DHT22;4511;50.890;8.054;2023-04-06T09:16:39;9.70;69.90
8953;DHT22;4511;50.890;8.054;2023-04-06T09:19:06;9.80;68.90
8953;DHT22;4511;50.890;8.054;2023-04-06T09:21:33;9.90;66.70
8953;DHT22;4511;50.890;8.054;2023-04-06T09:24:01;9.90;67.00
8953;DHT22;4511;50.890;8.054;2023-04-06T09:26:28;9.90;66.70
8953;DHT22;4511;50.890;8.054;2023-04-06T09:28:57;9.90;66.50
8953;DHT22;4511;50.890;8.054;2023-04-06T09:31:26;10.00;63.90
8953;DHT22;4511;50.890;8.054;2023-04-06T09:33:54;10.10;64.60
8953;DHT22;4511;50.890;8.054;2023-04-06T09:36:30;10.10;63.90
8953;DHT22;4511;50.890;8.054;2023-04-06T09:38:58;10.20;64.40
8953;DHT22;4511;50.890;8.054;2023-04-06T09:41:28;10.40;60.70
8953;DHT22;4511;50.890;8.054;2023-04-06T09:44:02;10.50;61.70
8953;DHT22;4511;50.890;8.054;2023-04-06T09:46:32;10.60;63.00
8953;DHT22;4511;50.890;8.054;2023-04-06T09:49:00;10.50;60.80
8953;DHT22;4511;50.890;8.054;2023-04-06T09:51:31;10.60;61.70
8953;DHT22;4511;50.890;8.054;2023-04-06T09:53:59;10.80;60.70
8953;DHT22;4511;50.890;8.054;2023-04-06T09:56:31;11.00;61.00
8953;DHT22;4511;50.890;8.054;2023-04-06T09:59:02;11.10;60.00
8953;DHT22;4511;50.890;8.054;2023-04-06T10:01:33;11.30;61.00
8953;DHT22;4511;50.890;8.054;2023-04-06T10:04:09;11.50;62.40
8953;DHT22;4511;50.890;8.054;2023-04-06T10:06:39;11.70;63.50
8953;DHT22;4511;50.890;8.054;2023-04-06T10:09:07;12.00;63.60
8953;DHT22;4511;50.890;8.054;2023-04-06T10:11:36;12.10;65.60
8953;DHT22;4511;50.890;8.054;2023-04-06T10:14:03;12.20;65.40
8953;DHT22;4511;50.890;8.054;2023-04-06T10:16:30;12.60;65.90
8953;DHT22;4511;50.890;8.054;2023-04-06T10:19:02;12.80;64.90
8953;DHT22;4511;50.890;8.054;2023-04-06T10:21:32;12.90;63.80
8953;DHT22;4511;50.890;8.054;2023-04-06T10:24:02;13.30;64.10
8953;DHT22;4511;50.890;8.054;2023-04-06T10:26:28;13.20;63.20
8953;DHT22;4511;50.890;8.054;2023-04-06T10:29:03;13.00;60.30
8953;DHT22;4511;50.890;8.054;2023-04-06T10:31:30;13.10;59.50
8953;DHT22;4511;50.890;8.054;2023-04-06T10:33:58;13.00;63.10
8953;DHT22;4511;50.890;8.054;2023-04-06T10:36:26;12.80;60.70
8953;DHT22;4511;50.890;8.054;2023-04-06T10:38:56;12.60;59.80
8953;DHT22;4511;50.890;8.054;2023-04-06T10:41:23;12.00;59.10
8953;DHT22;4511;50.890;8.054;2023-04-06T10:43:56;12.50;60.00
8953;DHT22;4511;50.890;8.054;2023-04-06T10:46:27;12.70;62.60
8953;DHT22;4511;50.890;8.054;2023-04-06T10:48:54;12.80;59.70
8953;DHT22;4511;50.890;8.054;2023-04-06T10:51:26;12.30;59.30
8953;DHT22;4511;50.890;8.054;2023-04-06T10:53:54;12.40;58.60
8953;DHT22;4511;50.890;8.054;2023-04-06T10:56:23;12.20;59.60
8953;DHT22;4511;50.890;8.054;2023-04-06T10:58:52;12.10;60.10
8953;DHT22;4511;50.890;8.054;2023-04-06T11:01:22;12.60;60.80
8953;DHT22;4511;50.890;8.054;2023-04-06T11:03:52;12.50;63.50
8953;DHT22;4511;50.890;8.054;2023-04-06T11:06:19;12.40;61.30
8953;DHT22;4511;50.890;8.054;2023-04-06T11:08:46;12.60;59.50
8953;DHT22;4511;50.890;8.054;2023-04-06T11:11:14;13.10;58.90
8953;DHT22;4511;50.890;8.054;2023-04-06T11:13:45;13.50;58.10
8953;DHT22;4511;50.890;8.054;2023-04-06T11:16:13;13.40;55.80
8953;DHT22;4511;50.890;8.054;2023-04-06T11:18:51;13.20;57.00
8953;DHT22;4511;50.890;8.054;2023-04-06T11:21:18;13.30;57.60
8953;DHT22;4511;50.890;8.054;2023-04-06T11:23:45;13.20;57.30
8953;DHT22;4511;50.890;8.054;2023-04-06T11:26:13;13.40;57.00
8953;DHT22;4511;50.890;8.054;2023-04-06T11:28:40;12.90;57.80
8953;DHT22;4511;50.890;8.054;2023-04-06T11:31:08;13.20;58.50
8953;DHT22;4511;50.890;8.054;2023-04-06T11:33:36;13.40;55.40
8953;DHT22;4511;50.890;8.054;2023-04-06T11:36:05;13.50;55.80
8953;DHT22;4511;50.890;8.054;2023-04-06T11:38:33;13.80;54.80
8953;DHT22;4511;50.890;8.054;2023-04-06T11:41:01;13.70;54.70
8953;DHT22;4511;50.890;8.054;2023-04-06T11:43:28;14.20;55.30
8953;DHT22;4511;50.890;8.054;2023-04-06T11:46:02;14.60;53.90
8953;DHT22;4511;50.890;8.054;2023-04-06T11:48:30;14.80;54.30
8953;DHT22;4511;50.890;8.054;2023-04-06T11:50:57;14.70;52.90
8953;DHT22;4511;50.890;8.054;2023-04-06T11:53:27;14.60;52.80
8953;DHT22;4511;50.890;8.054;2023-04-06T11:55:55;14.20;52.30
8953;DHT22;4511;50.890;8.054;2023-04-06T11:58:22;14.00;53.10
8953;DHT22;4511;50.890;8.054;2023-04-06T12:00:48;13.80;53.50
8953;DHT22;4511;50.890;8.054;2023-04-06T12:03:15;13.90;54.50
8953;DHT22;4511;50.890;8.054;2023-04-06T12:05:42;13.70;55.30
8953;DHT22;4511;50.890;8.054;2023-04-06T12:08:09;13.70;55.20
8953;DHT22;4511;50.890;8.054;2023-04-06T12:10:37;13.60;56.30
8953;DHT22;4511;50.890;8.054;2023-04-06T12:13:04;13.80;56.30
8953;DHT22;4511;50.890;8.054;2023-04-06T12:15:31;13.90;56.30
8953;DHT22;4511;50.890;8.054;2023-04-06T12:17:58;13.60;56.90
8953;DHT22;4511;50.890;8.054;2023-04-06T12:20:24;13.70;56.80
8953;DHT22;4511;50.890;8.054;2023-04-06T12:22:51;13.70;56.50
8953;DHT22;4511;50.890;8.054;2023-04-06T12:25:18;13.90;56.80
8953;DHT22;4511;50.890;8.054;2023-04-06T12:27:46;14.30;56.40
8953;DHT22;4511;50.890;8.054;2023-04-06T12:30:14;14.30;55.70
8953;DHT22;4511;50.890;8.054;2023-04-06T12:32:41;14.40;55.20
8953;DHT22;4511;50.890;8.054;2023-04-06T12:35:08;14.30;55.90
8953;DHT22;4511;50.890;8.054;2023-04-06T12:37:37;14.50;55.40
8953;DHT22;4511;50.890;8.054;2023-04-06T12:40:05;14.20;54.60
8953;DHT22;4511;50.890;8.054;2023-04-06T12:42:31;14.30;55.20
8953;DHT22;4511;50.890;8.054;2023-04-06T12:44:59;14.60;55.20
8953;DHT22;4511;50.890;8.054;2023-04-06T12:47:26;14.70;54.80
8953;DHT22;4511;50.890;8.054;2023-04-06T12:49:53;14.60;55.00
8953;DHT22;4511;50.890;8.054;2023-04-06T12:52:20;14.60;55.50
8953;DHT22;4511;50.890;8.054;2023-04-06T12:54:47;14.50;55.90
8953;DHT22;4511;50.890;8.054;2023-04-06T12:57:14;14.50;55.90
8953;DHT22;4511;50.890;8.054;2023-04-06T12:59:42;14.50;55.60
8953;DHT22;4511;50.890;8.054;2023-04-06T13:02:11;14.70;55.30
8953;DHT22;4511;50.890;8.054;2023-04-06T13:04:37;14.80;55.60
8953;DHT22;4511;50.890;8.054;2023-04-06T13:07:05;14.80;55.60
8953;DHT22;4511;50.890;8.054;2023-04-06T13:09:31;15.00;54.70
8953;DHT22;4511;50.890;8.054;2023-04-06T13:11:58;15.10;54.90
8953;DHT22;4511;50.890;8.054;2023-04-06T13:14:26;15.30;54.50
8953;DHT22;4511;50.890;8.054;2023-04-06T13:16:53;15.40;55.00
8953;DHT22;4511;50.890;8.054;2023-04-06T13:19:21;15.40;54.60
8953;DHT22;4511;50.890;8.054;2023-04-06T13:21:48;14.90;53.20
8953;DHT22;4511;50.890;8.054;2023-04-06T13:24:15;14.90;53.60
8953;DHT22;4511;50.890;8.054;2023-04-06T13:26:41;14.90;54.70
8953;DHT22;4511;50.890;8.054;2023-04-06T13:29:08;15.10;54.30
8953;DHT22;4511;50.890;8.054;2023-04-06T13:31:35;15.00;53.80
8953;DHT22;4511;50.890;8.054;2023-04-06T13:34:02;14.50;53.50
8953;DHT22;4511;50.890;8.054;2023-04-06T13:36:30;14.50;53.80
8953;DHT22;4511;50.890;8.054;2023-04-06T13:38:57;14.60;52.70
8953;DHT22;4511;50.890;8.054;2023-04-06T13:41:25;14.50;53.40
8953;DHT22;4511;50.890;8.054;2023-04-06T13:43:51;14.50;53.10
8953;DHT22;4511;50.890;8.054;2023-04-06T13:46:18;14.70;53.30
8953;DHT22;4511;50.890;8.054;2023-04-06T13:48:45;14.80;52.90
8953;DHT22;4511;50.890;8.054;2023-04-06T13:51:13;14.50;53.70
8953;DHT22;4511;50.890;8.054;2023-04-06T13:53:41;14.40;53.90
8953;DHT22;4511;50.890;8.054;2023-04-06T13:56:08;14.50;52.80
8953;DHT22;4511;50.890;8.054;2023-04-06T13:58:35;14.30;52.60
8953;DHT22;4511;50.890;8.054;2023-04-06T14:01:03;14.10;53.10
8953;DHT22;4511;50.890;8.054;2023-04-06T14:03:29;13.90;53.20
8953;DHT22;4511;50.890;8.054;2023-04-06T14:05:56;13.90;53.30
8953;DHT22;4511;50.890;8.054;2023-04-06T14:08:23;14.10;54.30
8953;DHT22;4511;50.890;8.054;2023-04-06T14:10:51;13.70;53.50
8953;DHT22;4511;50.890;8.054;2023-04-06T14:13:19;13.40;53.50
8953;DHT22;4511;50.890;8.054;2023-04-06T14:15:46;13.40;54.00
8953;DHT22;4511;50.890;8.054;2023-04-06T14:18:12;13.30;54.40
8953;DHT22;4511;50.890;8.054;2023-04-06T14:20:39;13.50;54.00
8953;DHT22;4511;50.890;8.054;2023-04-06T14:23:07;13.30;54.90
8953;DHT22;4511;50.890;8.054;2023-04-06T14:25:33;13.10;53.20
8953;DHT22;4511;50.890;8.054;2023-04-06T14:28:02;13.20;54.30
8953;DHT22;4511;50.890;8.054;2023-04-06T14:30:29;13.00;54.60
8953;DHT22;4511;50.890;8.054;2023-04-06T14:32:56;13.00;55.10
8953;DHT22;4511;50.890;8.054;2023-04-06T14:35:23;13.00;55.10
8953;DHT22;4511;50.890;8.054;2023-04-06T14:37:53;12.70;52.90
8953;DHT22;4511;50.890;8.054;2023-04-06T14:40:20;12.50;51.90
8953;DHT22;4511;50.890;8.054;2023-04-06T14:42:47;12.40;51.60
8953;DHT22;4511;50.890;8.054;2023-04-06T14:45:15;12.60;51.00
8953;DHT22;4511;50.890;8.054;2023-04-06T14:47:42;12.70;52.50
8953;DHT22;4511;50.890;8.054;2023-04-06T14:50:10;12.50;54.50
8953;DHT22;4511;50.890;8.054;2023-04-06T14:52:36;12.20;54.90
8953;DHT22;4511;50.890;8.054;2023-04-06T14:55:04;12.10;55.30
8953;DHT22;4511;50.890;8.054;2023-04-06T14:57:31;12.10;55.20
8953;DHT22;4511;50.890;8.054;2023-04-06T14:59:58;12.10;56.00
8953;DHT22;4511;50.890;8.054;2023-04-06T15:02:26;12.10;56.80
8953;DHT22;4511;50.890;8.054;2023-04-06T15:04:52;12.10;57.70
8953;DHT22;4511;50.890;8.054;2023-04-06T15:07:19;12.20;56.60
8953;DHT22;4511;50.890;8.054;2023-04-06T15:09:46;12.20;55.20
8953;DHT22;4511;50.890;8.054;2023-04-06T15:12:13;12.20;54.90
8953;DHT22;4511;50.890;8.054;2023-04-06T15:14:40;12.20;55.90
8953;DHT22;4511;50.890;8.054;2023-04-06T15:17:06;12.30;56.10
8953;DHT22;4511;50.890;8.054;2023-04-06T15:19:35;12.40;56.50
8953;DHT22;4511;50.890;8.054;2023-04-06T15:22:01;12.40;56.60
8953;DHT22;4511;50.890;8.054;2023-04-06T15:24:28;12.50;56.40
8953;DHT22;4511;50.890;8.054;2023-04-06T15:26:55;12.40;56.20
8953;DHT22;4511;50.890;8.054;2023-04-06T15:29:22;12.40;56.60
8953;DHT22;4511;50.890;8.054;2023-04-06T15:31:49;12.50;57.10
8953;DHT22;4511;50.890;8.054;2023-04-06T15:34:15;12.30;57.40
8953;DHT22;4511;50.890;8.054;2023-04-06T15:36:43;12.30;58.30
8953;DHT22;4511;50.890;8.054;2023-04-06T15:39:11;12.10;58.00
8953;DHT22;4511;50.890;8.054;2023-04-06T15:41:39;12.10;58.50
8953;DHT22;4511;50.890;8.054;2023-04-06T15:44:05;12.00;59.50
8953;DHT22;4511;50.890;8.054;2023-04-06T15:46:32;11.90;59.60
8953;DHT22;4511;50.890;8.054;2023-04-06T15:48:59;11.80;61.00
8953;DHT22;4511;50.890;8.054;2023-04-06T15:51:26;11.80;62.20
8953;DHT22;4511;50.890;8.054;2023-04-06T15:53:55;11.50;60.20
8953;DHT22;4511;50.890;8.054;2023-04-06T15:56:23;11.50;61.80
8953;DHT22;4511;50.890;8.054;2023-04-06T15:58:49;11.60;62.10
8953;DHT22;4511;50.890;8.054;2023-04-06T16:01:17;11.60;62.10
8953;DHT22;4511;50.890;8.054;2023-04-06T16:03:44;11.60;63.00
8953;DHT22;4511;50.890;8.054;2023-04-06T16:06:11;11.60;65.30
8953;DHT22;4511;50.890;8.054;2023-04-06T16:08:39;11.50;63.50
8953;DHT22;4511;50.890;8.054;2023-04-06T16:11:07;11.50;63.90
8953;DHT22;4511;50.890;8.054;2023-04-06T16:13:35;11.50;64.40